sensor_id;sensor_type;location;lat;lon;timestamp;P1;durP1;ratioP1;P2;durP2;ratioP2
63900;SDS011;50538;53.482;10.294;2023-09-07T00:01:17;4.32;;;1.90;;
63900;SDS011;50538;53.482;10.294;2023-09-07T00:11:17;5.55;;;1.88;;
63900;SDS011;50538;53.482;10.294;2023-09-07T00:21:17;5.35;;;1.88;;
63900;SDS011;50538;53.482;10.294;2023-09-07T00:31:18;4.93;;;1.90;;
63900;SDS011;50538;53.482;10.294;2023-09-07T00:41:19;3.85;;;1.85;;
63900;SDS011;50538;53.482;10.294;2023-09-07T00:51:20;4.07;;;1.85;;
63900;SDS011;50538;53.482;10.294;2023-09-07T01:01:21;5.75;;;2.00;;
63900;SDS011;50538;53.482;10.294;2023-09-07T01:11:23;3.70;;;1.90;;
63900;SDS011;50538;53.482;10.294;2023-09-07T01:21:27;3.50;;;2.05;;
63900;SDS011;50538;53.482;10.294;2023-09-07T01:31:34;3.92;;;1.98;;
63900;SDS011;50538;53.482;10.294;2023-09-07T01:41:38;3.45;;;2.08;;
63900;SDS011;50538;53.482;10.294;2023-09-07T01:51:38;4.07;;;2.28;;
63900;SDS011;50538;53.482;10.294;2023-09-07T02:01:38;4.00;;;2.30;;
63900;SDS011;50538;53.482;10.294;2023-09-07T02:11:39;7.43;;;2.08;;
63900;SDS011;50538;53.482;10.294;2023-09-07T02:21:40;5.65;;;2.10;;
63900;SDS011;50538;53.482;10.294;2023-09-07T02:31:41;3.92;;;2.15;;
63900;SDS011;50538;53.482;10.294;2023-09-07T02:41:41;3.85;;;1.85;;
63900;SDS011;50538;53.482;10.294;2023-09-07T02:51:42;3.88;;;2.10;;
63900;SDS011;50538;53.482;10.294;2023-09-07T03:01:42;4.05;;;1.95;;
63900;SDS011;50538;53.482;10.294;2023-09-07T03:11:44;3.85;;;1.92;;
63900;SDS011;50538;53.482;10.294;2023-09-07T03:21:44;5.40;;;2.25;;
63900;SDS011;50538;53.482;10.294;2023-09-07T03:31:44;4.32;;;2.10;;
63900;SDS011;50538;53.482;10.294;2023-09-07T03:41:45;4.22;;;2.15;;
63900;SDS011;50538;53.482;10.294;2023-09-07T03:51:46;5.07;;;2.55;;
63900;SDS011;50538;53.482;10.294;2023-09-07T04:01:47;4.47;;;2.20;;
63900;SDS011;50538;53.482;10.294;2023-09-07T04:11:48;3.63;;;2.15;;
63900;SDS011;50538;53.482;10.294;2023-09-07T04:21:48;3.83;;;2.30;;
63900;SDS011;50538;53.482;10.294;2023-09-07T04:31:50;3.70;;;2.20;;
63900;SDS011;50538;53.482;10.294;2023-09-07T04:41:51;8.32;;;2.35;;
63900;SDS011;50538;53.482;10.294;2023-09-07T04:51:53;4.50;;;2.40;;
63900;SDS011;50538;53.482;10.294;2023-09-07T05:01:54;3.80;;;2.20;;
63900;SDS011;50538;53.482;10.294;2023-09-07T05:11:56;4.15;;;2.45;;
63900;SDS011;50538;53.482;10.294;2023-09-07T05:21:56;5.75;;;2.38;;
63900;SDS011;50538;53.482;10.294;2023-09-07T05:31:57;4.15;;;2.40;;
63900;SDS011;50538;53.482;10.294;2023-09-07T05:41:57;4.82;;;2.40;;
63900;SDS011;50538;53.482;10.294;2023-09-07T05:51:57;4.22;;;2.53;;
63900;SDS011;50538;53.482;10.294;2023-09-07T06:01:58;4.90;;;2.65;;
63900;SDS011;50538;53.482;10.294;2023-09-07T06:11:58;5.80;;;2.85;;
63900;SDS011;50538;53.482;10.294;2023-09-07T06:21:58;5.88;;;2.72;;
63900;SDS011;50538;53.482;10.294;2023-09-07T06:31:59;5.43;;;3.03;;
63900;SDS011;50538;53.482;10.294;2023-09-07T06:41:59;5.53;;;3.03;;
63900;SDS011;50538;53.482;10.294;2023-09-07T06:52:00;4.53;;;2.47;;
63900;SDS011;50538;53.482;10.294;2023-09-07T07:02:00;5.40;;;3.17;;
63900;SDS011;50538;53.482;10.294;2023-09-07T07:12:01;6.55;;;3.25;;
63900;SDS011;50538;53.482;10.294;2023-09-07T07:22:02;6.05;;;3.13;;
63900;SDS011;50538;53.482;10.294;2023-09-07T07:32:03;5.75;;;2.88;;
63900;SDS011;50538;53.482;10.294;2023-09-07T07:42:04;7.47;;;2.97;;
63900;SDS011;50538;53.482;10.294;2023-09-07T07:52:06;8.80;;;3.58;;
63900;SDS011;50538;53.482;10.294;2023-09-07T08:02:07;4.45;;;2.63;;
63900;SDS011;50538;53.482;10.294;2023-09-07T08:12:09;5.45;;;2.88;;
63900;SDS011;50538;53.482;10.294;2023-09-07T08:22:09;4.90;;;3.08;;
63900;SDS011;50538;53.482;10.294;2023-09-07T08:32:09;6.63;;;3.03;;
63900;SDS011;50538;53.482;10.294;2023-09-07T08:42:11;7.50;;;3.57;;
63900;SDS011;50538;53.482;10.294;2023-09-07T08:52:12;5.20;;;2.88;;
63900;SDS011;50538;53.482;10.294;2023-09-07T09:02:15;5.65;;;3.10;;
63900;SDS011;50538;53.482;10.294;2023-09-07T09:12:16;9.07;;;3.20;;
63900;SDS011;50538;53.482;10.294;2023-09-07T09:22:17;5.80;;;3.23;;
63900;SDS011;50538;53.482;10.294;2023-09-07T09:32:17;7.90;;;3.03;;
63900;SDS011;50538;53.482;10.294;2023-09-07T09:52:20;4.57;;;2.70;;
63900;SDS011;50538;53.482;10.294;2023-09-07T10:02:22;5.05;;;3.00;;
63900;SDS011;50538;53.482;10.294;2023-09-07T10:12:26;7.93;;;2.58;;
63900;SDS011;50538;53.482;10.294;2023-09-07T10:22:27;6.30;;;2.60;;
63900;SDS011;50538;53.482;10.294;2023-09-07T10:32:37;5.32;;;2.80;;
63900;SDS011;50538;53.482;10.294;2023-09-07T10:42:41;4.93;;;2.80;;
63900;SDS011;50538;53.482;10.294;2023-09-07T10:52:41;5.18;;;2.35;;
63900;SDS011;50538;53.482;10.294;2023-09-07T11:02:43;6.30;;;3.15;;
63900;SDS011;50538;53.482;10.294;2023-09-07T11:12:43;4.75;;;2.90;;
63900;SDS011;50538;53.482;10.294;2023-09-07T11:22:44;5.67;;;2.70;;
63900;SDS011;50538;53.482;10.294;2023-09-07T11:32:44;6.40;;;2.80;;
63900;SDS011;50538;53.482;10.294;2023-09-07T11:42:46;4.97;;;2.17;;
63900;SDS011;50538;53.482;10.294;2023-09-07T11:52:47;3.60;;;2.17;;
63900;SDS011;50538;53.482;10.294;2023-09-07T12:02:47;3.70;;;2.17;;
63900;SDS011;50538;53.482;10.294;2023-09-07T12:12:48;6.70;;;2.33;;
63900;SDS011;50538;53.482;10.294;2023-09-07T12:22:48;5.63;;;2.63;;
63900;SDS011;50538;53.482;10.294;2023-09-07T12:32:50;6.37;;;2.30;;
63900;SDS011;50538;53.482;10.294;2023-09-07T12:42:51;4.47;;;2.40;;
63900;SDS011;50538;53.482;10.294;2023-09-07T12:52:51;4.28;;;2.05;;
63900;SDS011;50538;53.482;10.294;2023-09-07T13:02:52;5.60;;;2.30;;
63900;SDS011;50538;53.482;10.294;2023-09-07T13:12:54;5.20;;;2.43;;
63900;SDS011;50538;53.482;10.294;2023-09-07T13:22:54;5.88;;;2.22;;
63900;SDS011;50538;53.482;10.294;2023-09-07T13:32:54;5.10;;;2.30;;
63900;SDS011;50538;53.482;10.294;2023-09-07T13:42:55;4.33;;;2.20;;
63900;SDS011;50538;53.482;10.294;2023-09-07T13:52:56;3.50;;;1.88;;
63900;SDS011;50538;53.482;10.294;2023-09-07T14:02:56;4.87;;;2.43;;
63900;SDS011;50538;53.482;10.294;2023-09-07T14:12:57;3.87;;;2.27;;
63900;SDS011;50538;53.482;10.294;2023-09-07T14:22:57;7.22;;;2.20;;
63900;SDS011;50538;53.482;10.294;2023-09-07T14:42:58;5.20;;;2.60;;
63900;SDS011;50538;53.482;10.294;2023-09-07T14:52:59;5.72;;;2.28;;
63900;SDS011;50538;53.482;10.294;2023-09-07T15:02:59;6.10;;;2.53;;
63900;SDS011;50538;53.482;10.294;2023-09-07T15:13:00;4.73;;;2.43;;
63900;SDS011;50538;53.482;10.294;2023-09-07T15:23:04;4.40;;;2.28;;
63900;SDS011;50538;53.482;10.294;2023-09-07T15:33:04;4.47;;;2.27;;
63900;SDS011;50538;53.482;10.294;2023-09-07T15:43:05;4.30;;;2.40;;
63900;SDS011;50538;53.482;10.294;2023-09-07T15:53:07;3.55;;;2.30;;
63900;SDS011;50538;53.482;10.294;2023-09-07T16:03:08;5.50;;;2.40;;
63900;SDS011;50538;53.482;10.294;2023-09-07T16:13:09;4.03;;;2.40;;
63900;SDS011;50538;53.482;10.294;2023-09-07T16:23:10;3.83;;;2.17;;
63900;SDS011;50538;53.482;10.294;2023-09-07T16:33:10;5.22;;;2.17;;
63900;SDS011;50538;53.482;10.294;2023-09-07T16:43:10;4.57;;;2.28;;
63900;SDS011;50538;53.482;10.294;2023-09-07T16:53:11;4.43;;;2.13;;
63900;SDS011;50538;53.482;10.294;2023-09-07T17:03:12;4.28;;;2.30;;
63900;SDS011;50538;53.482;10.294;2023-09-07T17:13:14;5.57;;;2.22;;
63900;SDS011;50538;53.482;10.294;2023-09-07T17:23:17;4.30;;;2.10;;
63900;SDS011;50538;53.482;10.294;2023-09-07T17:33:17;3.58;;;2.08;;
63900;SDS011;50538;53.482;10.294;2023-09-07T17:43:18;4.80;;;2.28;;
63900;SDS011;50538;53.482;10.294;2023-09-07T17:53:21;12.93;;;4.53;;
63900;SDS011;50538;53.482;10.294;2023-09-07T18:03:21;18.30;;;7.57;;
63900;SDS011;50538;53.482;10.294;2023-09-07T18:13:26;14.35;;;6.03;;
63900;SDS011;50538;53.482;10.294;2023-09-07T18:23:27;17.10;;;5.95;;
63900;SDS011;50538;53.482;10.294;2023-09-07T18:33:28;10.40;;;4.07;;
63900;SDS011;50538;53.482;10.294;2023-09-07T18:43:29;8.73;;;3.70;;
63900;SDS011;50538;53.482;10.294;2023-09-07T18:53:30;10.45;;;3.47;;
63900;SDS011;50538;53.482;10.294;2023-09-07T19:03:31;8.63;;;3.20;;
63900;SDS011;50538;53.482;10.294;2023-09-07T19:13:31;6.22;;;2.85;;
63900;SDS011;50538;53.482;10.294;2023-09-07T19:23:32;5.47;;;2.63;;
63900;SDS011;50538;53.482;10.294;2023-09-07T19:33:32;4.78;;;2.40;;
63900;SDS011;50538;53.482;10.294;2023-09-07T19:43:34;7.75;;;2.67;;
63900;SDS011;50538;53.482;10.294;2023-09-07T19:53:35;4.75;;;2.45;;
63900;SDS011;50538;53.482;10.294;2023-09-07T20:03:36;4.25;;;2.20;;
63900;SDS011;50538;53.482;10.294;2023-09-07T20:13:36;4.15;;;2.28;;
63900;SDS011;50538;53.482;10.294;2023-09-07T20:23:37;4.72;;;2.30;;
63900;SDS011;50538;53.482;10.294;2023-09-07T20:33:37;4.45;;;2.58;;
63900;SDS011;50538;53.482;10.294;2023-09-07T20:43:37;5.00;;;2.47;;
63900;SDS011;50538;53.482;10.294;2023-09-07T20:53:38;5.80;;;2.50;;
63900;SDS011;50538;53.482;10.294;2023-09-07T21:03:38;4.40;;;2.20;;
63900;SDS011;50538;53.482;10.294;2023-09-07T21:13:39;4.00;;;1.95;;
63900;SDS011;50538;53.482;10.294;2023-09-07T21:23:39;5.65;;;2.40;;
63900;SDS011;50538;53.482;10.294;2023-09-07T21:33:39;5.32;;;2.30;;
63900;SDS011;50538;53.482;10.294;2023-09-07T21:43:40;4.45;;;2.50;;
63900;SDS011;50538;53.482;10.294;2023-09-07T21:53:40;10.88;;;2.70;;
63900;SDS011;50538;53.482;10.294;2023-09-07T22:03:40;5.95;;;2.33;;
63900;SDS011;50538;53.482;10.294;2023-09-07T22:13:41;4.07;;;2.20;;
63900;SDS011;50538;53.482;10.294;2023-09-07T22:23:41;4.90;;;2.70;;
63900;SDS011;50538;53.482;10.294;2023-09-07T22:33:42;8.40;;;2.40;;
63900;SDS011;50538;53.482;10.294;2023-09-07T22:43:42;4.53;;;2.25;;
63900;SDS011;50538;53.482;10.294;2023-09-07T22:53:43;5.07;;;2.28;;
63900;SDS011;50538;53.482;10.294;2023-09-07T23:03:43;6.00;;;3.08;;
63900;SDS011;50538;53.482;10.294;2023-09-07T23:13:43;7.45;;;2.70;;
63900;SDS011;50538;53.482;10.294;2023-09-07T23:23:44;3.85;;;2.25;;
63900;SDS011;50538;53.482;10.294;2023-09-07T23:33:44;3.50;;;2.15;;
63900;SDS011;50538;53.482;10.294;2023-09-07T23:43:44;6.20;;;2.70;;
63900;SDS011;50538;53.482;10.294;2023-09-07T23:53:45;6.85;;;2.50;;
